createdAt,value
2019-03-29T00:12:46.449Z,7.00
2019-03-29T00:27:49.233Z,7.00
2019-03-29T00:42:52.028Z,6.80
2019-03-29T00:57:54.799Z,6.70
2019-03-29T01:12:58.324Z,6.60
2019-03-29T01:28:00.890Z,6.60
2019-03-29T01:43:03.822Z,6.40
2019-03-29T01:58:06.637Z,6.40
2019-03-29T02:13:09.497Z,6.30
2019-03-29T02:28:12.273Z,6.20
2019-03-29T02:43:15.067Z,6.10
2019-03-29T02:58:18.498Z,6.00
2019-03-29T03:13:21.275Z,6.00
2019-03-29T03:28:24.055Z,6.00
2019-03-29T03:43:26.834Z,5.90
2019-03-29T03:58:29.623Z,5.70
2019-03-29T04:13:32.385Z,5.70
2019-03-29T04:28:35.176Z,5.70
2019-03-29T04:43:37.983Z,6.00
2019-03-29T04:58:40.749Z,6.10
2019-03-29T05:13:43.552Z,6.20
2019-03-29T05:28:46.327Z,6.40
2019-03-29T05:43:49.113Z,6.70
2019-03-29T05:58:56.858Z,6.90
2019-03-29T06:13:59.636Z,7.30
2019-03-29T06:29:02.422Z,7.60
2019-03-29T06:44:05.206Z,8.10
2019-03-29T06:59:07.979Z,8.10
2019-03-29T07:14:10.757Z,8.20
2019-03-29T07:29:16.749Z,8.20
2019-03-29T07:44:19.541Z,8.40
2019-03-29T07:59:22.521Z,8.70
2019-03-29T08:14:25.097Z,8.80
2019-03-29T08:29:31.126Z,9.30
2019-03-29T08:44:30.647Z,9.40
2019-03-29T08:59:33.437Z,9.70
2019-03-29T09:14:36.213Z,9.90
2019-03-29T09:30:07.017Z,10.40
2019-03-29T09:49:35.949Z,10.80
2019-03-29T10:38:02.604Z,9.60
2019-03-29T11:14:33.749Z,11.30
2019-03-29T11:33:06.664Z,10.50
2019-03-29T12:39:23.339Z,11.40
2019-03-29T13:08:00.845Z,12.30
2019-03-29T14:18:58.734Z,13.90
2019-03-29T15:02:35.017Z,12.70
2019-03-29T15:56:36.393Z,11.80
2019-03-29T16:59:05.957Z,11.80
2019-03-29T18:12:46.558Z,9.20
2019-03-29T19:41:00.927Z,6.40
2019-03-29T23:20:00.499Z,5.40
